• Join FlightAware (Why Join?)
  • Login
  • US Flag 
10:31PM EDT


 

Airport Tracker/Info


-or-


 

Live Flight TrackerFlight Track Log ✈ GLA31B ✈ 26-May-2013 ✈ KBFF - KDEN

Flight Track Log - Related Links

Times and Time Zones

All times are in EDT time to prevent confusion due to time zone crossing. See the GLA31B flight status page for this flight to view local times or setup timezone preferences in your user account.

Time Position Orientation Groundspeed Altitude Reporting Facility
EDT Latitude Longitude Course Direction KTS MPH feet Rate Location/Type
10:08AM 41.8411 -103.6208 181° South 187 215 7,800  Level Denver Center
10:09AM 41.4597 -103.6000 180° South  Level FlightAware Approximate
10:09AM 41.8000 -103.5875 149° Southeast 179 206 9,700  Level Denver Center
10:10AM 41.3918 -103.6000 180° South  Level FlightAware Approximate
10:10AM 41.7425 -103.5531 156° South 197 227 11,800  Level Denver Center
10:11AM 41.3239 -103.6022 184° South  Level FlightAware Approximate
10:11AM 41.6881 -103.5333 165° South 208 239 13,400  Level Denver Center
10:12AM 41.2560 -103.6078 184° South  Level FlightAware Approximate
10:12AM 41.6303 -103.5128 165° South 218 251 14,900  Level Denver Center
10:13AM 41.5592 -103.5075 177° South 225 259 16,200 600 Climbing Denver Center
10:14AM 41.4933 -103.5194 188° South 239 275 16,200 -60 Level Denver Center
10:15AM 41.4142 -103.5347 188° South 253 291 16,100 -60 Descending Denver Center
10:16AM 41.3469 -103.5506 190° South 257 296 16,100  Level Denver Center
10:17AM 41.2786 -103.5653 189° South 257 296 16,100  Level Denver Center
10:18AM 41.1986 -103.5764 186° South 259 298 16,100 -60 Level Denver Center
10:19AM 41.1308 -103.5908 189° South 257 296 16,000  Descending Denver Center
10:20AM 41.0633 -103.6083 191° South 259 298 16,100  Climbing Denver Center
10:21AM 40.9839 -103.6175 185° South 257 296 16,100  Level Denver Center
10:22AM 40.9272 -103.6200 182° South 255 293 16,100  Level Denver Center
10:23AM 40.8353 -103.6244 182° South 259 298 16,100 -300 Level Denver Center
10:24AM 40.7719 -103.6733 210° Southwest 274 315 15,500 -660 Descending Denver Center
10:25AM 40.7078 -103.7225 210° Southwest 274 315 14,800 -840 Descending Denver Center
10:26AM 40.6322 -103.7786 209° Southwest 277 319 13,800 -840 Descending Denver Center
10:27AM 40.5672 -103.8264 209° Southwest 279 321 13,100 -360 Descending Denver Center
10:28AM 40.4917 -103.8814 209° Southwest 278 320 13,100  Level Denver Center
10:29AM 40.4275 -103.9222 206° Southwest 271 312 13,100  Level Denver Center
10:30AM 40.3672 -103.9769 215° Southwest 265 305 13,100 -60 Level Denver Center
10:31AM 40.3131 -104.0403 222° Southwest 262 302 13,000 -720 Descending Denver Center
10:32AM 40.3031 -104.1381 262° West 252 290 11,700 -900 Descending Denver Center
10:33AM 40.2947 -104.2278 263° West 251 289 11,200 -360 Descending Denver Center
10:34AM 40.2639 -104.3075 243° Southwest 246 283 11,000 -180 Descending Denver Center
10:35AM 40.2358 -104.3889 246° West 246 283 10,900 -720 Descending Denver Center
10:36AM 40.1969 -104.4839 242° Southwest 243 280 9,400 -960 Descending Denver Center
10:37AM 40.1547 -104.5608 234° Southwest 243 280 9,000 -240 Descending Denver Center
10:38AM 40.0992 -104.6047 211° Southwest 237 273 9,000 -480 Level Denver Center
10:39AM 40.0417 -104.6403 205° Southwest 230 265 8,100 -840 Descending Denver Center
10:40AM 39.9839 -104.6775 206° Southwest 219 252 7,300 -960 Descending Denver Center
10:42AM 39.9378 -104.6864 188° South 170 196 6,200 -960 Descending Denver Center
10:43AM 39.8956 -104.6867 180° South 156 180 5,400 -840 Descending Denver Center
10:45AM 39.8617 -104.6732 229° Southwest  Level Estimated
10:52AM 39.8617 -104.6732 229° Southwest  Level Estimated
10:53AM 39.8617 -104.6732 229° Southwest  Level Estimated